Prince Of Seas — A8JI5 — position and weather

sailwx.info

Track history (hours):
 
Tides and Currents Weather Stations Pressure Air Temp Water Temp Dewpoint Dewpoint Depression Visibility Wind Speed Wind Dir Waves Ship Positions

Prince Of Seas

Last reported at 2015-Jun-12 17:14 UTC. Time now 2015-Jul-07 13:13 UTC.
Position N 28°06' W 013°36'.
Warning: this ship's position is 24 days out of date.

Length 131 m; beam 19 m.

Type: Ship. MMSI: 636091098.

Date/timePositionNaut miles runAvg speedWind from/ knotsBaromVisibWave heightAir tempDewpointWater temp
2015-Jun-12 17:14N 28°06' W 013°36'1417.3
2015-Jun-12 16:25N 28°18' W 013°28'60916.5
2015-Jun-11 03:29N 35°58' W 005°37'1111.9
2015-Jun-11 02:33N 36°02' W 005°24'7 6.8
2015-Jun-11 01:32N 36°09' W 005°22'0 0.1
2015-Jun-11 00:29N 36°09' W 005°22'0 0.0
2015-Jun-10 23:32N 36°09' W 005°22'0 0.0
2015-Jun-10 22:32N 36°09' W 005°22'0 0.0
2015-Jun-10 21:20N 36°09' W 005°22'0 0.0
2015-Jun-10 20:32N 36°09' W 005°22'0 0.1
2015-Jun-10 19:32N 36°09' W 005°22'0 0.1
2015-Jun-10 18:23N 36°09' W 005°22'0 0.0
2015-Jun-10 17:32N 36°09' W 005°22'0 0.0
2015-Jun-10 16:29N 36°09' W 005°22'0 0.1
2015-Jun-10 15:32N 36°09' W 005°22'5 4.6
2015-Jun-10 14:33N 36°05' W 005°20'8 7.6
2015-Jun-10 13:29N 36°07' W 005°11'0 0.3
2015-Jun-10 12:23N 36°07' W 005°10'1 0.8
2015-Jun-10 11:33N 36°07' W 005°11'4 3.4
2015-Jun-10 10:28N 36°06' W 005°07'9615.9
2015-Jun-10 04:25N 36°14' W 003°08'1517.1
2015-Jun-10 03:31N 36°16' W 002°49'1717.3
2015-Jun-10 02:33N 36°17' W 002°29'1717.2
2015-Jun-10 01:33N 36°19' W 002°07'5216.9
2015-Jun-09 22:29N 36°28' W 001°04'1616.8
2015-Jun-09 21:33N 36°30' W 000°44'1716.8
2015-Jun-09 20:34N 36°33' W 000°24'4 4.2
2015-Jun-09 19:32N 36°35' W 000°19'5 4.7
2015-Jun-09 18:29N 36°34' W 000°13'1617.1
2015-Jun-09 17:33N 36°38' E 000°06'1717.0
2015-Jun-09 16:33N 36°40' E 000°27'1716.8
2015-Jun-09 15:34N 36°43' E 000°48'1716.9
2015-Jun-09 14:33N 36°47' E 001°09'1717.0
2015-Jun-09 13:32N 36°49' E 001°30'1817.0
2015-Jun-09 12:30N 36°52' E 001°52'1616.6
2015-Jun-09 11:33N 36°55' E 002°11'10116.7
2015-Jun-09 05:30N 37°12' E 004°16'25117.4
2015-Jun-08 15:05N 37°38' E 009°30'1117.0
2015-Jun-08 14:25N 37°39' E 009°44'1416.8
2015-Jun-08 13:33N 37°39' E 010°03'1716.7
2015-Jun-08 12:33N 37°37' E 010°23'1716.7
2015-Jun-08 11:33N 37°33' E 010°44'1716.8
2015-Jun-08 10:33N 37°28' E 011°04'2416.8
2015-Jun-08 09:08N 37°16' E 011°31'1017.4
2015-Jun-08 08:32N 37°10' E 011°41'1817.0
2015-Jun-08 07:29N 36°59' E 011°58'1616.9
2015-Jun-08 06:33N 36°48' E 012°13'1716.6
2015-Jun-08 05:33N 36°35' E 012°25'1616.3
2015-Jun-08 04:33N 36°21' E 012°37'1616.2
2015-Jun-08 03:33N 36°08' E 012°48'1716.2
2015-Jun-08 02:32N 35°54' E 012°60'1616.5
2015-Jun-08 01:33N 35°39' E 013°06'3816.8
2015-Jun-07 23:18N 35°03' E 013°21'1916.9
2015-Jun-07 22:12N 34°46' E 013°28'1117.0
2015-Jun-07 21:33N 34°35' E 013°32'  
2015-Jun-04 15:13N 32°41' E 014°15'0 0.0
2015-Jun-03 17:19N 32°41' E 014°15'0 0.0
2015-Jun-03 16:25N 32°41' E 014°15'0 0.0
2015-Jun-03 15:31N 32°41' E 014°15'0 0.0
2015-Jun-03 14:07N 32°41' E 014°15'0 0.0
2015-Jun-03 13:31N 32°41' E 014°15'0 0.0
2015-Jun-03 12:31N 32°41' E 014°15'0 0.0
2015-Jun-03 03:25N 32°41' E 014°15'  
Track history (hours):
 
Tides and Currents Weather Stations Pressure Air Temp Water Temp Dewpoint Dewpoint Depression Visibility Wind Speed Wind Dir Waves Ship Positions

Prince Of Seas

Last reported at 2015-Jun-12 17:14 UTC. Time now 2015-Jul-07 13:13 UTC.
Position N 28°06' W 013°36'.
Warning: this ship's position is 24 days out of date.

Length 131 m; beam 19 m.

Type: Ship. MMSI: 636091098.

Date/timePositionNaut miles runAvg speedWind from/ knotsBaromVisibWave heightAir tempDewpointWater temp
2015-Jun-12 17:14N 28°06' W 013°36'1417.3
2015-Jun-12 16:25N 28°18' W 013°28'60916.5
2015-Jun-11 03:29N 35°58' W 005°37'1111.9
2015-Jun-11 02:33N 36°02' W 005°24'7 6.8
2015-Jun-11 01:32N 36°09' W 005°22'0 0.1
2015-Jun-11 00:29N 36°09' W 005°22'0 0.0
2015-Jun-10 23:32N 36°09' W 005°22'0 0.0
2015-Jun-10 22:32N 36°09' W 005°22'0 0.0
2015-Jun-10 21:20N 36°09' W 005°22'0 0.0
2015-Jun-10 20:32N 36°09' W 005°22'0 0.1
2015-Jun-10 19:32N 36°09' W 005°22'0 0.1
2015-Jun-10 18:23N 36°09' W 005°22'0 0.0
2015-Jun-10 17:32N 36°09' W 005°22'0 0.0
2015-Jun-10 16:29N 36°09' W 005°22'0 0.1
2015-Jun-10 15:32N 36°09' W 005°22'5 4.6
2015-Jun-10 14:33N 36°05' W 005°20'8 7.6
2015-Jun-10 13:29N 36°07' W 005°11'0 0.3
2015-Jun-10 12:23N 36°07' W 005°10'1 0.8
2015-Jun-10 11:33N 36°07' W 005°11'4 3.4
2015-Jun-10 10:28N 36°06' W 005°07'9615.9
2015-Jun-10 04:25N 36°14' W 003°08'1517.1
2015-Jun-10 03:31N 36°16' W 002°49'1717.3
2015-Jun-10 02:33N 36°17' W 002°29'1717.2
2015-Jun-10 01:33N 36°19' W 002°07'5216.9
2015-Jun-09 22:29N 36°28' W 001°04'1616.8
2015-Jun-09 21:33N 36°30' W 000°44'1716.8
2015-Jun-09 20:34N 36°33' W 000°24'4 4.2
2015-Jun-09 19:32N 36°35' W 000°19'5 4.7
2015-Jun-09 18:29N 36°34' W 000°13'1617.1
2015-Jun-09 17:33N 36°38' E 000°06'1717.0
2015-Jun-09 16:33N 36°40' E 000°27'1716.8
2015-Jun-09 15:34N 36°43' E 000°48'1716.9
2015-Jun-09 14:33N 36°47' E 001°09'1717.0
2015-Jun-09 13:32N 36°49' E 001°30'1817.0
2015-Jun-09 12:30N 36°52' E 001°52'1616.6
2015-Jun-09 11:33N 36°55' E 002°11'10116.7
2015-Jun-09 05:30N 37°12' E 004°16'25117.4
2015-Jun-08 15:05N 37°38' E 009°30'1117.0
2015-Jun-08 14:25N 37°39' E 009°44'1416.8
2015-Jun-08 13:33N 37°39' E 010°03'1716.7
2015-Jun-08 12:33N 37°37' E 010°23'1716.7
2015-Jun-08 11:33N 37°33' E 010°44'1716.8
2015-Jun-08 10:33N 37°28' E 011°04'2416.8
2015-Jun-08 09:08N 37°16' E 011°31'1017.4
2015-Jun-08 08:32N 37°10' E 011°41'1817.0
2015-Jun-08 07:29N 36°59' E 011°58'1616.9
2015-Jun-08 06:33N 36°48' E 012°13'1716.6
2015-Jun-08 05:33N 36°35' E 012°25'1616.3
2015-Jun-08 04:33N 36°21' E 012°37'1616.2
2015-Jun-08 03:33N 36°08' E 012°48'1716.2
2015-Jun-08 02:32N 35°54' E 012°60'1616.5
2015-Jun-08 01:33N 35°39' E 013°06'3816.8
2015-Jun-07 23:18N 35°03' E 013°21'1916.9
2015-Jun-07 22:12N 34°46' E 013°28'1117.0
2015-Jun-07 21:33N 34°35' E 013°32'  
2015-Jun-04 15:13N 32°41' E 014°15'0 0.0
2015-Jun-03 17:19N 32°41' E 014°15'0 0.0
2015-Jun-03 16:25N 32°41' E 014°15'0 0.0
2015-Jun-03 15:31N 32°41' E 014°15'0 0.0
2015-Jun-03 14:07N 32°41' E 014°15'0 0.0
2015-Jun-03 13:31N 32°41' E 014°15'0 0.0
2015-Jun-03 12:31N 32°41' E 014°15'0 0.0
2015-Jun-03 03:25N 32°41' E 014°15'  

Dump ship's entire track history